Time;durP1;ratioP1;P1;durP2;ratioP2;P2;SDS_P1;SDS_P2;PMS_P1;PMS_P2;Temp;Humidity;BMP_temperature;BMP_pressure;BME280_temperature;BME280_humidity;BME280_pressure;Samples;Min_cycle;Max_cycle;Signal;HPM_P1;HPM_P2
2023/01/28 00:01:30;;;;;;;8.55;6.20;;;;;;;;;;4975761;28;20062;-80
2023/01/28 00:03:57;;;;;;;49.55;45.55;;;;;;;;;;4975052;28;20048;-79
2023/01/28 00:06:25;;;;;;;13.02;6.97;;;;;;;;;;4972940;28;20078;-79
2023/01/28 00:08:53;;;;;;;9.23;5.57;;;;;;;;;;4975077;28;20466;-79
2023/01/28 00:11:23;;;;;;;8.10;5.97;;;;;;;;;;4955355;28;20038;-77
2023/01/28 00:13:51;;;;;;;8.75;6.30;;;;;;;;;;4969477;28;20401;-78
2023/01/28 00:16:19;;;;;;;11.15;6.60;;;;;;;;;;4970497;28;20039;-77
2023/01/28 00:18:46;;;;;;;9.88;5.95;;;;;;;;;;4970152;28;20074;-77
2023/01/28 00:21:14;;;;;;;8.43;5.72;;;;;;;;;;4967735;28;20059;-77
2023/01/28 00:23:43;;;;;;;6.45;5.28;;;;;;;;;;4942066;28;20920;-77
2023/01/28 00:26:14;;;;;;;9.48;6.05;;;;;;;;;;4970965;28;20105;-77
2023/01/28 00:28:44;;;;;;;7.22;5.38;;;;;;;;;;4952443;28;20050;-77
2023/01/28 00:31:15;;;;;;;9.35;6.40;;;;;;;;;;4968741;28;20050;-80
2023/01/28 00:33:43;;;;;;;8.73;6.20;;;;;;;;;;4970033;28;20058;-78
2023/01/28 00:36:11;;;;;;;6.82;5.50;;;;;;;;;;4971115;28;20043;-78
2023/01/28 00:38:41;;;;;;;9.10;5.47;;;;;;;;;;4966239;28;20476;-78
2023/01/28 00:41:11;;;;;;;8.23;5.65;;;;;;;;;;4971944;28;20476;-78
2023/01/28 00:43:38;;;;;;;8.75;5.45;;;;;;;;;;4955884;28;20050;-78
2023/01/28 00:46:07;;;;;;;6.18;4.97;;;;;;;;;;4957256;28;20051;-79
2023/01/28 00:48:35;;;;;;;10.80;5.55;;;;;;;;;;4972059;28;20065;-78
2023/01/28 00:51:03;;;;;;;6.85;4.97;;;;;;;;;;4969534;28;20070;-78
2023/01/28 00:53:31;;;;;;;6.47;5.35;;;;;;;;;;4958872;28;20057;-78
2023/01/28 00:55:59;;;;;;;8.80;6.03;;;;;;;;;;4960893;28;20105;-78
2023/01/28 00:58:26;;;;;;;7.68;5.28;;;;;;;;;;4958362;28;20453;-78
2023/01/28 01:01:05;;;;;;;7.05;5.25;;;;;;;;;;4954095;28;20464;-78
2023/01/28 01:03:32;;;;;;;7.75;6.95;;;;;;;;;;4960844;28;20143;-78
2023/01/28 01:06:00;;;;;;;6.20;5.30;;;;;;;;;;4956489;28;20082;-78
2023/01/28 01:08:33;;;;;;;6.55;5.05;;;;;;;;;;4958194;28;20046;-78
2023/01/28 01:11:01;;;;;;;7.43;5.43;;;;;;;;;;4974331;28;20658;-78
2023/01/28 01:13:33;;;;;;;11.15;6.00;;;;;;;;;;4958562;28;20046;-79
2023/01/28 01:16:03;;;;;;;7.35;5.57;;;;;;;;;;4966195;28;20071;-79
2023/01/28 01:18:30;;;;;;;7.63;5.32;;;;;;;;;;4977199;28;20137;-78
2023/01/28 01:23:55;;;;;;;7.15;5.63;;;;;;;;;;5022151;28;20042;-84
2023/01/28 01:26:24;;;;;;;8.57;6.10;;;;;;;;;;5019099;28;20068;-83
2023/01/28 01:28:51;;;;;;;6.70;5.00;;;;;;;;;;4996322;28;20050;-83
2023/01/28 01:31:19;;;;;;;7.30;5.55;;;;;;;;;;5004008;28;20049;-83
2023/01/28 01:33:47;;;;;;;8.02;5.75;;;;;;;;;;4979870;28;20050;-83
2023/01/28 01:36:16;;;;;;;9.73;5.88;;;;;;;;;;4973746;28;20144;-82
2023/01/28 01:38:43;;;;;;;9.15;5.88;;;;;;;;;;4972953;28;20046;-83
2023/01/28 01:41:25;;;;;;;7.95;5.90;;;;;;;;;;4972166;28;20109;-83
2023/01/28 01:43:54;;;;;;;8.00;5.60;;;;;;;;;;4977952;28;20073;-84
2023/01/28 01:46:24;;;;;;;7.90;5.55;;;;;;;;;;4971183;28;20460;-83
2023/01/28 01:48:52;;;;;;;7.75;5.25;;;;;;;;;;4992424;28;20436;-82
2023/01/28 01:51:23;;;;;;;6.97;5.60;;;;;;;;;;4971508;28;20038;-82
2023/01/28 01:53:52;;;;;;;7.72;5.82;;;;;;;;;;4982721;28;20054;-83
2023/01/28 01:56:22;;;;;;;7.93;5.93;;;;;;;;;;4989038;28;20114;-83
2023/01/28 01:58:50;;;;;;;8.52;6.00;;;;;;;;;;4972991;28;20078;-83
2023/01/28 02:01:20;;;;;;;7.05;5.97;;;;;;;;;;4976473;28;20051;-83
2023/01/28 02:04:00;;;;;;;8.77;5.88;;;;;;;;;;4984555;28;20401;-83
2023/01/28 02:06:28;;;;;;;9.55;5.93;;;;;;;;;;4981762;28;20054;-84
2023/01/28 02:08:56;;;;;;;9.38;5.93;;;;;;;;;;5003901;28;20057;-83
2023/01/28 02:11:29;;;;;;;7.78;5.78;;;;;;;;;;4998890;28;20050;-83
2023/01/28 02:13:57;;;;;;;6.53;4.95;;;;;;;;;;4998205;28;20042;-83
2023/01/28 02:16:27;;;;;;;8.00;5.50;;;;;;;;;;4981456;28;20496;-84
2023/01/28 02:18:54;;;;;;;8.55;5.72;;;;;;;;;;4994248;28;20046;-84
2023/01/28 02:21:57;;;;;;;7.20;5.43;;;;;;;;;;4975783;28;20061;-83
2023/01/28 02:24:43;;;;;;;6.93;5.35;;;;;;;;;;4923988;29;20134;-82
2023/01/28 02:27:18;;;;;;;8.23;5.35;;;;;;;;;;4973908;28;20082;-83
2023/01/28 02:30:04;;;;;;;6.65;5.22;;;;;;;;;;4970290;28;20043;-82
2023/01/28 02:32:45;;;;;;;9.00;5.38;;;;;;;;;;4964073;28;20054;-82
2023/01/28 02:35:18;;;;;;;7.82;5.80;;;;;;;;;;4967561;28;20539;-83
2023/01/28 02:37:48;;;;;;;8.65;5.95;;;;;;;;;;4966588;28;20315;-84
2023/01/28 02:40:25;;;;;;;8.68;6.15;;;;;;;;;;4966361;28;20043;-83
2023/01/28 02:42:53;;;;;;;7.60;5.68;;;;;;;;;;4995238;28;20089;-85
2023/01/28 02:45:22;;;;;;;10.20;6.47;;;;;;;;;;5005604;28;20030;-85
2023/01/28 02:47:59;;;;;;;10.60;6.68;;;;;;;;;;4998632;28;20052;-84
2023/01/28 02:50:43;;;;;;;8.65;5.95;;;;;;;;;;4994577;28;20110;-84
2023/01/28 02:56:04;;;;;;;7.93;5.90;;;;;;;;;;4996442;28;20058;-83
2023/01/28 02:58:41;;;;;;;8.32;6.15;;;;;;;;;;5006695;28;20057;-84
2023/01/28 03:01:18;;;;;;;8.55;5.82;;;;;;;;;;4973697;28;20096;-83
2023/01/28 03:03:52;;;;;;;11.77;7.00;;;;;;;;;;4973947;28;20068;-83
2023/01/28 03:06:21;;;;;;;11.10;6.97;;;;;;;;;;5000169;28;20057;-83
2023/01/28 03:09:27;;;;;;;10.05;6.95;;;;;;;;;;4976946;28;20169;-83
2023/01/28 03:37:27;;;;;;;12.60;7.40;;;;;;;;;;4981641;28;20145;-83
2023/01/28 03:40:06;;;;;;;11.02;6.75;;;;;;;;;;4980351;28;20575;-82
2023/01/28 03:42:34;;;;;;;10.88;7.05;;;;;;;;;;4980269;28;20562;-83
2023/01/28 03:45:10;;;;;;;10.63;6.68;;;;;;;;;;4993815;28;20100;-83
2023/01/28 03:47:39;;;;;;;11.98;6.78;;;;;;;;;;4982021;28;20041;-84
2023/01/28 03:50:09;;;;;;;10.53;6.07;;;;;;;;;;4975697;28;20041;-84
2023/01/28 03:53:10;;;;;;;8.50;5.65;;;;;;;;;;4968863;28;20355;-85
2023/01/28 03:55:46;;;;;;;12.75;8.07;;;;;;;;;;4989856;28;20042;-85
2023/01/28 03:58:14;;;;;;;10.02;6.15;;;;;;;;;;4970560;28;20120;-83
2023/01/28 04:00:42;;;;;;;11.50;6.50;;;;;;;;;;4971743;28;20136;-82
2023/01/28 04:03:16;;;;;;;10.95;7.22;;;;;;;;;;4972959;28;20142;-82
2023/01/28 04:06:05;;;;;;;11.48;6.90;;;;;;;;;;4990181;28;20046;-82
2023/01/28 04:08:51;;;;;;;13.43;7.43;;;;;;;;;;4991829;28;20058;-84
2023/01/28 04:11:29;;;;;;;10.68;7.30;;;;;;;;;;4995667;28;20037;-84
2023/01/28 04:13:59;;;;;;;13.35;7.03;;;;;;;;;;4983350;28;20038;-84
2023/01/28 04:16:34;;;;;;;11.02;7.20;;;;;;;;;;4981030;28;20057;-83
2023/01/28 04:19:01;;;;;;;12.68;6.80;;;;;;;;;;4978449;28;20049;-84
2023/01/28 04:21:29;;;;;;;10.40;6.55;;;;;;;;;;4976625;28;20133;-84
2023/01/28 04:23:56;;;;;;;13.68;7.68;;;;;;;;;;4996748;28;20056;-85
2023/01/28 04:26:24;;;;;;;9.88;6.05;;;;;;;;;;4985820;28;20034;-84
2023/01/28 04:28:51;;;;;;;8.18;5.95;;;;;;;;;;4985498;28;20054;-83
2023/01/28 04:31:19;;;;;;;14.00;6.85;;;;;;;;;;4988187;28;20559;-84
2023/01/28 04:34:16;;;;;;;10.68;6.88;;;;;;;;;;4982666;28;20034;-84
2023/01/28 04:37:04;;;;;;;11.90;6.72;;;;;;;;;;4970686;28;20519;-84
2023/01/28 04:40:03;;;;;;;11.05;6.38;;;;;;;;;;4991153;28;20056;-85
2023/01/28 04:43:00;;;;;;;8.02;6.00;;;;;;;;;;4987007;28;20115;-83
2023/01/28 04:45:47;;;;;;;11.93;7.10;;;;;;;;;;4975554;28;20050;-83
2023/01/28 04:48:35;;;;;;;10.80;6.63;;;;;;;;;;4991731;28;20050;-83
2023/01/28 04:51:25;;;;;;;10.32;6.40;;;;;;;;;;5000121;28;20050;-83
2023/01/28 04:54:08;;;;;;;9.13;6.18;;;;;;;;;;4971905;28;20515;-83
2023/01/28 04:56:36;;;;;;;16.63;12.77;;;;;;;;;;4964092;28;20058;-83
2023/01/28 04:59:04;;;;;;;11.52;7.18;;;;;;;;;;4972770;28;20077;-83
2023/01/28 05:01:32;;;;;;;10.48;6.45;;;;;;;;;;4984408;28;20131;-84
2023/01/28 05:04:04;;;;;;;11.93;8.60;;;;;;;;;;4976723;28;20132;-83
2023/01/28 05:06:34;;;;;;;8.00;5.90;;;;;;;;;;4969937;28;20138;-83
2023/01/28 05:09:06;;;;;;;11.68;8.20;;;;;;;;;;4972877;28;20176;-83
2023/01/28 05:11:34;;;;;;;12.85;7.05;;;;;;;;;;4971491;28;20046;-83
2023/01/28 05:14:05;;;;;;;12.70;6.82;;;;;;;;;;4968705;28;20050;-83
2023/01/28 05:16:39;;;;;;;12.15;7.05;;;;;;;;;;4969736;28;20042;-84
2023/01/28 05:19:07;;;;;;;10.15;6.20;;;;;;;;;;4974310;28;20046;-84
2023/01/28 05:21:42;;;;;;;15.93;7.82;;;;;;;;;;4973184;28;20058;-84
2023/01/28 05:24:18;;;;;;;11.13;7.03;;;;;;;;;;4972344;28;20069;-83
2023/01/28 05:26:45;;;;;;;9.90;6.57;;;;;;;;;;4971510;28;20050;-83
2023/01/28 05:29:12;;;;;;;10.40;7.18;;;;;;;;;;4971343;28;20066;-83
2023/01/28 05:31:40;;;;;;;10.57;6.43;;;;;;;;;;4977276;28;20116;-82
2023/01/28 05:34:07;;;;;;;14.20;12.10;;;;;;;;;;5000548;28;20066;-85
2023/01/28 05:36:35;;;;;;;12.00;8.68;;;;;;;;;;4981653;28;20042;-82
2023/01/28 05:39:11;;;;;;;11.73;7.20;;;;;;;;;;4981432;28;20046;-84
2023/01/28 05:41:39;;;;;;;10.20;6.80;;;;;;;;;;4983852;28;20043;-82
2023/01/28 05:44:06;;;;;;;10.57;6.85;;;;;;;;;;4978645;28;20582;-82
2023/01/28 05:46:53;;;;;;;11.57;7.10;;;;;;;;;;4987574;28;20081;-83
2023/01/28 05:49:39;;;;;;;11.07;6.65;;;;;;;;;;4987000;28;20050;-83
2023/01/28 05:52:24;;;;;;;10.98;7.65;;;;;;;;;;4990729;28;20113;-82
2023/01/28 05:54:51;;;;;;;10.82;6.47;;;;;;;;;;4970298;28;20069;-83
2023/01/28 05:57:19;;;;;;;16.35;7.53;;;;;;;;;;4973163;28;20046;-83
2023/01/28 05:59:46;;;;;;;10.20;6.35;;;;;;;;;;4972926;28;20058;-81
2023/01/28 06:02:13;;;;;;;12.38;9.88;;;;;;;;;;4973479;28;20118;-84
2023/01/28 06:04:41;;;;;;;13.68;8.07;;;;;;;;;;4972649;28;20115;-84
2023/01/28 06:07:12;;;;;;;12.60;7.22;;;;;;;;;;4981917;28;20042;-83
2023/01/28 06:09:39;;;;;;;16.05;7.88;;;;;;;;;;4974763;28;20034;-81
2023/01/28 06:12:07;;;;;;;11.15;7.35;;;;;;;;;;4971091;28;20062;-81
2023/01/28 06:14:45;;;;;;;12.52;7.07;;;;;;;;;;4969078;28;20042;-83
2023/01/28 06:17:40;;;;;;;16.23;7.90;;;;;;;;;;4978610;28;20042;-83
2023/01/28 06:20:19;;;;;;;10.55;7.25;;;;;;;;;;4991709;28;20070;-84
2023/01/28 06:22:50;;;;;;;13.20;7.85;;;;;;;;;;4996562;28;20046;-86
2023/01/28 06:25:18;;;;;;;12.43;7.55;;;;;;;;;;4973288;28;20046;-83
2023/01/28 06:27:46;;;;;;;9.10;7.82;;;;;;;;;;4979269;28;20057;-83
2023/01/28 06:30:13;;;;;;;21.40;15.77;;;;;;;;;;4993858;28;20519;-82
2023/01/28 06:32:41;;;;;;;41.40;38.15;;;;;;;;;;4969753;28;20057;-83
2023/01/28 06:35:09;;;;;;;15.95;14.00;;;;;;;;;;4972905;28;20047;-83
2023/01/28 06:37:36;;;;;;;14.15;8.55;;;;;;;;;;4985165;28;20121;-85
2023/01/28 06:40:04;;;;;;;11.93;8.10;;;;;;;;;;4976205;28;20063;-82
2023/01/28 06:42:31;;;;;;;11.52;8.38;;;;;;;;;;4975150;28;20072;-81
2023/01/28 06:44:58;;;;;;;12.20;8.05;;;;;;;;;;4977161;28;20113;-82
2023/01/28 06:47:26;;;;;;;14.57;8.98;;;;;;;;;;4975402;28;20144;-85
2023/01/28 06:49:53;;;;;;;14.15;8.88;;;;;;;;;;4985653;28;20054;-84
2023/01/28 06:52:20;;;;;;;12.60;8.50;;;;;;;;;;4990492;28;20042;-84
2023/01/28 06:54:48;;;;;;;12.60;8.40;;;;;;;;;;4987178;28;20053;-83
2023/01/28 06:57:15;;;;;;;13.88;8.38;;;;;;;;;;5005713;28;20058;-84
2023/01/28 06:59:42;;;;;;;12.57;8.07;;;;;;;;;;5006898;28;20066;-84
2023/01/28 07:02:11;;;;;;;13.77;12.23;;;;;;;;;;5005177;28;20054;-82
2023/01/28 07:04:38;;;;;;;14.55;9.10;;;;;;;;;;4995176;28;20050;-84
2023/01/28 07:07:05;;;;;;;11.32;7.43;;;;;;;;;;5002464;28;20077;-82
2023/01/28 07:09:32;;;;;;;10.95;8.00;;;;;;;;;;4999151;28;20089;-83
2023/01/28 07:12:04;;;;;;;13.55;8.73;;;;;;;;;;4990420;28;20410;-83
2023/01/28 07:14:31;;;;;;;13.85;8.82;;;;;;;;;;4991135;28;20109;-84
2023/01/28 07:16:58;;;;;;;15.35;8.63;;;;;;;;;;4997451;28;20038;-82
2023/01/28 07:19:26;;;;;;;12.50;9.07;;;;;;;;;;4994468;28;20038;-84
2023/01/28 07:21:57;;;;;;;15.02;8.98;;;;;;;;;;5058821;22;20532;-78
2023/01/28 07:24:27;;;;;;;16.95;10.13;;;;;;;;;;4983960;28;20030;-81
2023/01/28 07:26:55;;;;;;;13.88;9.05;;;;;;;;;;4987444;28;20084;-78
2023/01/28 07:29:22;;;;;;;16.23;9.63;;;;;;;;;;4977600;28;20070;-77
2023/01/28 07:31:50;;;;;;;15.23;9.07;;;;;;;;;;4986349;28;20042;-77
2023/01/28 07:34:17;;;;;;;14.10;9.27;;;;;;;;;;4989787;28;20047;-77
2023/01/28 07:36:44;;;;;;;14.43;9.27;;;;;;;;;;4983739;28;20117;-80
2023/01/28 07:39:12;;;;;;;15.10;9.90;;;;;;;;;;4978807;28;20184;-77
2023/01/28 07:41:39;;;;;;;16.00;9.52;;;;;;;;;;4980012;28;20068;-79
2023/01/28 07:44:09;;;;;;;14.07;8.52;;;;;;;;;;4964354;28;20054;-79
2023/01/28 07:46:38;;;;;;;12.68;8.63;;;;;;;;;;4962343;28;20051;-77
2023/01/28 07:49:06;;;;;;;14.15;8.77;;;;;;;;;;4982346;28;20051;-81
2023/01/28 07:51:33;;;;;;;14.10;8.23;;;;;;;;;;4986718;28;20046;-77
2023/01/28 07:54:00;;;;;;;13.18;8.15;;;;;;;;;;4966821;28;20041;-78
2023/01/28 07:56:30;;;;;;;15.35;8.20;;;;;;;;;;4987290;28;20504;-81
2023/01/28 07:58:57;;;;;;;15.40;13.57;;;;;;;;;;4988899;28;20042;-78
2023/01/28 08:01:24;;;;;;;13.27;10.25;;;;;;;;;;4984602;28;20066;-78
2023/01/28 08:03:53;;;;;;;15.65;9.45;;;;;;;;;;4965111;28;20047;-81
2023/01/28 08:06:20;;;;;;;13.75;8.27;;;;;;;;;;4980067;28;20300;-80
2023/01/28 08:08:48;;;;;;;12.30;7.97;;;;;;;;;;4978391;28;20496;-77
2023/01/28 08:11:15;;;;;;;13.35;8.95;;;;;;;;;;4981271;28;20038;-78
2023/01/28 08:13:43;;;;;;;12.85;7.78;;;;;;;;;;4963958;28;20141;-79
2023/01/28 08:16:10;;;;;;;11.25;7.97;;;;;;;;;;4980724;28;20468;-77
2023/01/28 08:18:37;;;;;;;14.48;12.57;;;;;;;;;;4967774;28;20046;-79
2023/01/28 08:21:05;;;;;;;39.40;36.35;;;;;;;;;;4981008;28;20042;-77
2023/01/28 08:23:33;;;;;;;14.40;8.18;;;;;;;;;;4980889;28;20058;-77
2023/01/28 08:26:00;;;;;;;15.75;12.10;;;;;;;;;;4984171;28;20057;-80
2023/01/28 08:28:28;;;;;;;12.57;8.65;;;;;;;;;;4984008;28;20064;-77
2023/01/28 08:30:55;;;;;;;14.50;8.25;;;;;;;;;;4968590;28;20050;-77
2023/01/28 08:33:23;;;;;;;12.15;7.22;;;;;;;;;;4982889;28;20046;-78
2023/01/28 08:35:50;;;;;;;14.40;8.90;;;;;;;;;;4968537;28;20438;-81
2023/01/28 08:38:19;;;;;;;15.30;8.68;;;;;;;;;;4986779;28;20046;-80
2023/01/28 08:40:49;;;;;;;16.05;12.05;;;;;;;;;;4984782;28;20069;-76
2023/01/28 08:43:16;;;;;;;18.65;16.13;;;;;;;;;;4983154;28;20117;-77
2023/01/28 08:45:44;;;;;;;16.85;10.20;;;;;;;;;;4988889;28;20050;-77
2023/01/28 08:48:14;;;;;;;15.05;9.07;;;;;;;;;;4978168;28;20101;-80
2023/01/28 08:50:42;;;;;;;13.80;8.57;;;;;;;;;;4985798;28;20058;-78
2023/01/28 08:53:11;;;;;;;17.65;12.65;;;;;;;;;;4983517;28;20054;-81
2023/01/28 08:55:38;;;;;;;17.13;11.45;;;;;;;;;;4984617;28;20038;-77
2023/01/28 08:58:09;;;;;;;15.63;10.75;;;;;;;;;;4983019;28;20050;-77
2023/01/28 09:00:37;;;;;;;13.00;9.07;;;;;;;;;;4980357;28;20046;-76
2023/01/28 09:03:05;;;;;;;13.70;9.02;;;;;;;;;;4983866;28;20046;-77
2023/01/28 09:05:37;;;;;;;14.15;9.80;;;;;;;;;;4972524;28;20046;-77
2023/01/28 09:08:05;;;;;;;16.85;10.50;;;;;;;;;;4986625;28;20546;-81
2023/01/28 09:10:33;;;;;;;15.57;9.30;;;;;;;;;;4970475;28;20492;-78
2023/01/28 09:13:04;;;;;;;15.27;10.40;;;;;;;;;;4989095;28;20441;-78
2023/01/28 09:15:32;;;;;;;17.50;10.47;;;;;;;;;;4986552;28;20046;-77
2023/01/28 09:17:59;;;;;;;14.45;9.57;;;;;;;;;;4986235;28;20042;-80
2023/01/28 09:20:27;;;;;;;13.90;9.30;;;;;;;;;;4983594;28;20046;-80
2023/01/28 09:22:55;;;;;;;15.07;9.77;;;;;;;;;;4988165;28;20058;-77
2023/01/28 09:25:22;;;;;;;14.80;9.10;;;;;;;;;;4985395;28;20534;-79
2023/01/28 09:27:49;;;;;;;14.05;9.40;;;;;;;;;;4988303;28;20061;-78
2023/01/28 09:30:17;;;;;;;15.02;9.25;;;;;;;;;;4987074;28;20121;-78
2023/01/28 09:32:44;;;;;;;19.70;17.80;;;;;;;;;;4988038;28;20522;-79
2023/01/28 09:35:14;;;;;;;16.35;9.77;;;;;;;;;;4988657;28;20089;-78
2023/01/28 09:37:41;;;;;;;15.18;11.50;;;;;;;;;;4988742;28;20579;-78
2023/01/28 09:40:12;;;;;;;15.38;9.38;;;;;;;;;;4987504;28;20061;-78
2023/01/28 09:43:03;;;;;;;24.73;22.13;;;;;;;;;;4983505;28;20129;-77
2023/01/28 09:45:33;;;;;;;17.92;13.05;;;;;;;;;;4952576;28;20050;-77
2023/01/28 09:48:02;;;;;;;14.27;9.45;;;;;;;;;;4987408;28;20050;-77
2023/01/28 09:50:37;;;;;;;17.77;13.90;;;;;;;;;;4988608;28;20046;-77
2023/01/28 09:53:16;;;;;;;75.10;69.43;;;;;;;;;;4985928;28;20054;-80
2023/01/28 09:55:46;;;;;;;109.65;102.07;;;;;;;;;;4989266;28;20089;-77
2023/01/28 09:58:16;;;;;;;38.85;35.50;;;;;;;;;;4989149;28;20054;-78
2023/01/28 10:00:50;;;;;;;18.92;10.90;;;;;;;;;;4986514;28;20156;-76
2023/01/28 10:03:28;;;;;;;21.60;13.23;;;;;;;;;;4971775;28;20081;-78
2023/01/28 10:05:55;;;;;;;12.77;8.55;;;;;;;;;;4989392;28;20130;-77
2023/01/28 10:08:33;;;;;;;51.28;47.20;;;;;;;;;;4991266;28;20042;-80
2023/01/28 10:11:06;;;;;;;14.02;9.50;;;;;;;;;;4992973;28;20052;-78
2023/01/28 10:13:52;;;;;;;12.43;8.38;;;;;;;;;;4991876;28;20070;-80
2023/01/28 10:16:23;;;;;;;32.58;29.45;;;;;;;;;;4991952;28;20053;-78
2023/01/28 10:19:10;;;;;;;16.60;10.50;;;;;;;;;;4992433;28;20120;-80
2023/01/28 10:21:49;;;;;;;15.93;11.10;;;;;;;;;;4990555;28;20112;-79
2023/01/28 10:24:18;;;;;;;53.35;49.33;;;;;;;;;;4983553;28;20042;-77
2023/01/28 10:26:47;;;;;;;29.55;27.08;;;;;;;;;;4992554;28;20112;-79
2023/01/28 10:29:16;;;;;;;19.73;15.48;;;;;;;;;;4974245;28;20051;-78
2023/01/28 10:31:51;;;;;;;15.32;9.68;;;;;;;;;;4974513;28;20042;-79
2023/01/28 10:34:18;;;;;;;13.38;9.15;;;;;;;;;;4974112;28;20096;-77
2023/01/28 10:36:47;;;;;;;15.27;10.30;;;;;;;;;;4992086;28;20066;-78
2023/01/28 10:39:15;;;;;;;13.93;9.75;;;;;;;;;;4992361;28;20042;-78
2023/01/28 10:41:43;;;;;;;16.15;10.02;;;;;;;;;;4976516;28;20046;-77
2023/01/28 10:44:26;;;;;;;14.85;10.45;;;;;;;;;;4988684;28;20109;-77
2023/01/28 10:46:56;;;;;;;15.20;9.90;;;;;;;;;;4991805;28;20088;-77
2023/01/28 10:49:28;;;;;;;15.38;10.52;;;;;;;;;;4992200;28;20139;-80
2023/01/28 10:51:55;;;;;;;18.88;9.77;;;;;;;;;;4991628;28;20482;-78
2023/01/28 10:54:22;;;;;;;15.23;10.35;;;;;;;;;;4991174;28;20060;-79
2023/01/28 10:56:53;;;;;;;17.05;10.32;;;;;;;;;;4996883;28;20116;-78
2023/01/28 10:59:26;;;;;;;20.38;16.08;;;;;;;;;;4993360;28;20185;-78
2023/01/28 11:01:55;;;;;;;15.00;9.43;;;;;;;;;;4991372;28;20046;-78
2023/01/28 11:04:25;;;;;;;16.00;10.07;;;;;;;;;;4991117;28;20105;-78
2023/01/28 11:07:11;;;;;;;17.48;11.18;;;;;;;;;;4970871;28;20682;-77
2023/01/28 11:09:44;;;;;;;16.17;10.77;;;;;;;;;;4981985;28;20166;-79
2023/01/28 11:12:11;;;;;;;17.63;13.70;;;;;;;;;;4990727;28;20043;-80
2023/01/28 11:14:49;;;;;;;16.45;10.63;;;;;;;;;;4966215;28;20584;-77
2023/01/28 11:17:17;;;;;;;19.65;16.58;;;;;;;;;;4989469;28;20451;-78
2023/01/28 11:19:45;;;;;;;15.48;10.90;;;;;;;;;;4990638;28;20386;-81
2023/01/28 11:22:30;;;;;;;17.90;11.18;;;;;;;;;;4985150;28;20093;-78
2023/01/28 11:24:58;;;;;;;16.70;12.27;;;;;;;;;;4990309;28;20070;-78
2023/01/28 11:27:29;;;;;;;13.40;10.55;;;;;;;;;;4990938;28;20133;-79
2023/01/28 11:29:57;;;;;;;17.05;10.30;;;;;;;;;;4991078;28;20045;-80
2023/01/28 11:32:26;;;;;;;14.90;10.40;;;;;;;;;;4990876;28;20061;-80
2023/01/28 11:34:56;;;;;;;15.23;10.45;;;;;;;;;;4990914;28;20077;-77
2023/01/28 11:37:25;;;;;;;16.95;14.35;;;;;;;;;;4991064;28;20054;-77
2023/01/28 11:40:15;;;;;;;14.15;9.65;;;;;;;;;;4990340;28;20089;-77
2023/01/28 11:42:48;;;;;;;20.15;10.90;;;;;;;;;;4973613;28;20099;-77
2023/01/28 11:45:47;;;;;;;20.77;10.95;;;;;;;;;;4990712;28;20054;-79
2023/01/28 11:48:22;;;;;;;16.58;10.10;;;;;;;;;;4973547;28;20588;-77
2023/01/28 11:50:53;;;;;;;16.00;12.65;;;;;;;;;;4972343;28;20057;-77
2023/01/28 11:53:34;;;;;;;15.50;10.32;;;;;;;;;;4990023;28;20081;-78
2023/01/28 11:56:19;;;;;;;19.20;16.25;;;;;;;;;;4972764;28;20092;-79
2023/01/28 11:58:46;;;;;;;14.38;10.55;;;;;;;;;;4991028;28;20053;-80
2023/01/28 12:01:24;;;;;;;15.77;10.07;;;;;;;;;;4990792;28;20069;-78
2023/01/28 12:04:01;;;;;;;14.32;10.02;;;;;;;;;;4989535;28;20056;-77
2023/01/28 12:06:35;;;;;;;15.77;9.73;;;;;;;;;;4990399;28;20416;-78
2023/01/28 12:09:15;;;;;;;17.90;13.82;;;;;;;;;;4989762;28;20076;-77
2023/01/28 12:14:37;;;;;;;15.90;9.65;;;;;;;;;;4990296;28;20046;-77
2023/01/28 12:17:10;;;;;;;17.45;11.32;;;;;;;;;;4990412;28;20065;-78
2023/01/28 12:19:40;;;;;;;16.92;9.73;;;;;;;;;;4988769;28;20042;-82
2023/01/28 12:22:27;;;;;;;15.57;11.45;;;;;;;;;;4988228;28;20141;-78
2023/01/28 12:25:15;;;;;;;13.52;9.00;;;;;;;;;;4990756;28;20065;-78
2023/01/28 12:27:47;;;;;;;15.82;10.07;;;;;;;;;;4990457;28;20401;-79
2023/01/28 12:30:18;;;;;;;16.55;10.23;;;;;;;;;;4990058;28;20129;-78
2023/01/28 12:32:52;;;;;;;16.13;10.52;;;;;;;;;;4988872;28;20097;-77
2023/01/28 12:35:20;;;;;;;15.73;10.30;;;;;;;;;;4984864;28;20061;-78
2023/01/28 12:37:47;;;;;;;13.00;9.20;;;;;;;;;;4985431;28;20121;-79
2023/01/28 12:40:37;;;;;;;18.23;14.40;;;;;;;;;;4989146;28;20382;-78
2023/01/28 12:43:10;;;;;;;14.82;10.00;;;;;;;;;;4980046;28;20088;-80
2023/01/28 12:45:40;;;;;;;16.52;10.27;;;;;;;;;;4985492;28;20108;-81
2023/01/28 12:48:11;;;;;;;15.60;9.95;;;;;;;;;;4971361;28;20121;-78
2023/01/28 12:50:46;;;;;;;16.38;10.65;;;;;;;;;;4986920;28;20134;-79
2023/01/28 12:53:20;;;;;;;18.60;16.35;;;;;;;;;;4968610;28;20134;-78
2023/01/28 12:55:49;;;;;;;15.13;10.57;;;;;;;;;;4989115;28;20080;-82
2023/01/28 12:58:20;;;;;;;12.60;9.48;;;;;;;;;;4989252;28;20042;-77
2023/01/28 13:00:54;;;;;;;14.70;9.07;;;;;;;;;;4971831;28;20537;-80
2023/01/28 13:03:26;;;;;;;14.68;10.02;;;;;;;;;;4989539;28;20051;-78
2023/01/28 13:05:57;;;;;;;13.65;10.02;;;;;;;;;;4990153;28;20563;-78
2023/01/28 13:08:26;;;;;;;16.55;11.73;;;;;;;;;;4970203;28;20054;-78
2023/01/28 13:10:54;;;;;;;14.75;10.18;;;;;;;;;;4971079;28;20057;-78
2023/01/28 13:13:28;;;;;;;16.92;9.05;;;;;;;;;;4988677;28;20136;-78
2023/01/28 13:15:56;;;;;;;12.38;9.57;;;;;;;;;;4971263;28;20125;-78
2023/01/28 13:18:31;;;;;;;16.42;10.40;;;;;;;;;;4961942;28;20538;-78
2023/01/28 13:21:04;;;;;;;16.00;10.73;;;;;;;;;;4970758;28;20050;-78
2023/01/28 13:23:40;;;;;;;17.02;10.68;;;;;;;;;;5019841;22;20054;-81
2023/01/28 13:26:22;;;;;;;16.25;10.60;;;;;;;;;;4977884;28;20053;-82
2023/01/28 13:28:51;;;;;;;15.27;11.02;;;;;;;;;;4987207;28;20074;-82
2023/01/28 13:31:23;;;;;;;15.43;10.20;;;;;;;;;;4998857;28;20118;-83
2023/01/28 13:33:54;;;;;;;12.80;9.05;;;;;;;;;;5003478;28;20040;-84
2023/01/28 13:36:29;;;;;;;14.35;9.20;;;;;;;;;;5008726;28;20034;-81
2023/01/28 13:39:20;;;;;;;18.35;16.60;;;;;;;;;;5007787;28;20054;-81
2023/01/28 13:41:49;;;;;;;17.17;9.70;;;;;;;;;;4985993;28;20061;-83
2023/01/28 13:44:18;;;;;;;15.00;9.68;;;;;;;;;;5004755;28;20114;-85
2023/01/28 13:46:45;;;;;;;15.57;10.07;;;;;;;;;;4988614;28;20102;-81
2023/01/28 13:49:16;;;;;;;14.10;11.95;;;;;;;;;;5003552;28;20050;-85
2023/01/28 13:52:19;;;;;;;18.02;10.60;;;;;;;;;;5003984;28;20050;-82
2023/01/28 13:54:50;;;;;;;15.57;10.18;;;;;;;;;;4963182;28;20073;-83
2023/01/28 13:57:43;;;;;;;14.65;10.30;;;;;;;;;;5000898;28;20046;-83
2023/01/28 14:00:24;;;;;;;12.77;9.45;;;;;;;;;;4999366;28;20105;-84
2023/01/28 14:03:20;;;;;;;12.77;9.20;;;;;;;;;;4985877;28;20129;-81
2023/01/28 14:05:51;;;;;;;15.95;9.55;;;;;;;;;;4997182;28;20038;-82
2023/01/28 14:08:32;;;;;;;11.65;8.68;;;;;;;;;;4981975;28;20049;-83
2023/01/28 14:11:18;;;;;;;16.63;13.07;;;;;;;;;;5006471;28;20077;-84
2023/01/28 14:13:55;;;;;;;14.02;10.43;;;;;;;;;;5011466;28;20042;-83
2023/01/28 14:16:41;;;;;;;14.30;8.77;;;;;;;;;;5011898;28;20049;-84
2023/01/28 14:19:12;;;;;;;77.32;71.93;;;;;;;;;;4984135;28;20112;-83
2023/01/28 14:21:40;;;;;;;22.73;20.60;;;;;;;;;;5013732;28;20057;-80
2023/01/28 14:24:14;;;;;;;14.35;9.60;;;;;;;;;;5002701;28;20081;-82
2023/01/28 14:26:47;;;;;;;14.90;9.82;;;;;;;;;;4999751;28;20047;-82
2023/01/28 14:29:18;;;;;;;11.13;7.82;;;;;;;;;;4997498;28;20050;-82
2023/01/28 14:31:46;;;;;;;16.35;9.80;;;;;;;;;;4998455;28;20057;-83
2023/01/28 14:34:16;;;;;;;12.70;8.63;;;;;;;;;;4984351;28;20042;-83
2023/01/28 14:36:45;;;;;;;13.35;10.30;;;;;;;;;;5005260;28;20030;-82
2023/01/28 14:39:29;;;;;;;14.35;10.05;;;;;;;;;;4983639;28;20077;-86
2023/01/28 14:41:58;;;;;;;14.23;9.23;;;;;;;;;;5006722;28;20057;-84
2023/01/28 14:44:31;;;;;;;17.40;10.32;;;;;;;;;;5001171;28;20054;-79
2023/01/28 14:47:18;;;;;;;15.02;9.98;;;;;;;;;;4996207;28;20423;-81
2023/01/28 14:49:51;;;;;;;15.23;9.70;;;;;;;;;;4997418;28;20055;-80
2023/01/28 14:52:18;;;;;;;26.20;23.70;;;;;;;;;;4991448;28;20051;-81
2023/01/28 14:55:05;;;;;;;14.27;9.32;;;;;;;;;;4985742;28;20050;-84
2023/01/28 14:57:39;;;;;;;13.18;11.40;;;;;;;;;;4986844;28;20068;-85
2023/01/28 15:00:38;;;;;;;20.20;10.85;;;;;;;;;;5004315;28;20050;-81
2023/01/28 15:03:16;;;;;;;20.98;13.10;;;;;;;;;;4961441;28;20055;-84
2023/01/28 15:06:10;;;;;;;18.17;10.25;;;;;;;;;;4999246;28;20043;-80
2023/01/28 15:08:38;;;;;;;16.90;10.93;;;;;;;;;;5008978;28;20060;-82
2023/01/28 15:11:08;;;;;;;15.38;10.02;;;;;;;;;;5011980;28;20038;-84
2023/01/28 15:13:38;;;;;;;19.58;9.70;;;;;;;;;;4991758;28;20106;-85
2023/01/28 15:16:07;;;;;;;22.45;12.52;;;;;;;;;;5000801;28;20047;-83
2023/01/28 15:18:36;;;;;;;22.88;12.13;;;;;;;;;;4989738;28;20844;-83
2023/01/28 15:21:04;;;;;;;42.88;39.05;;;;;;;;;;5004003;28;20096;-83
2023/01/28 15:23:36;;;;;;;16.52;10.15;;;;;;;;;;4986733;28;20053;-81
2023/01/28 15:26:03;;;;;;;;;;;;;;;;;;5002028;28;20046;-84
2023/01/28 15:28:33;;;;;;;23.30;21.25;;;;;;;;;;5007966;28;19922;-83
2023/01/28 15:31:01;;;;;;;13.57;9.27;;;;;;;;;;4998568;28;20050;-80
2023/01/28 15:33:29;;;;;;;18.63;10.63;;;;;;;;;;4983252;28;20420;-82